createdAt,value
2019-02-02T00:02:19.906Z,32.50
2019-02-02T00:04:49.766Z,28.63
2019-02-02T00:07:19.610Z,30.73
2019-02-02T00:09:49.337Z,30.70
2019-02-02T00:12:19.111Z,29.23
2019-02-02T00:14:48.907Z,33.43
2019-02-02T00:17:18.757Z,30.03
2019-02-02T00:19:48.538Z,30.07
2019-02-02T00:22:18.372Z,32.10
2019-02-02T00:24:48.062Z,35.07
2019-02-02T00:27:17.830Z,28.00
2019-02-02T00:29:47.537Z,29.70
2019-02-02T00:32:17.307Z,30.47
2019-02-02T00:34:46.998Z,29.13
2019-02-02T00:37:16.698Z,29.70
2019-02-02T00:39:46.378Z,30.07
2019-02-02T00:42:16.058Z,31.37
2019-02-02T00:44:45.842Z,30.93
2019-02-02T00:47:15.513Z,29.63
2019-02-02T00:49:45.209Z,31.00
2019-02-02T00:52:15.008Z,32.00
2019-02-02T00:54:44.696Z,31.33
2019-02-02T00:57:14.391Z,30.40
2019-02-02T00:59:44.093Z,33.13
2019-02-02T01:02:13.799Z,30.77
2019-02-02T01:04:43.576Z,29.33
2019-02-02T01:07:13.334Z,30.97
2019-02-02T01:09:43.099Z,30.77
2019-02-02T01:12:12.946Z,33.30
2019-02-02T01:14:42.650Z,30.47
2019-02-02T01:17:12.503Z,32.30
2019-02-02T01:19:42.378Z,31.80
2019-02-02T01:22:13.294Z,30.30
2019-02-02T01:24:43.042Z,31.30
2019-02-02T01:27:12.821Z,30.63
2019-02-02T01:29:42.574Z,28.33
2019-02-02T01:32:14.027Z,32.57
2019-02-02T01:34:43.864Z,32.17
2019-02-02T01:37:13.554Z,33.00
2019-02-02T01:39:43.262Z,31.00
2019-02-02T01:42:13.116Z,31.00
2019-02-02T01:44:42.825Z,33.50
2019-02-02T01:47:12.679Z,30.57
2019-02-02T01:49:42.380Z,31.07
2019-02-02T01:52:12.201Z,31.37
2019-02-02T01:54:41.875Z,31.27
2019-02-02T01:57:11.586Z,31.90
2019-02-02T01:59:41.428Z,30.77
2019-02-02T02:02:11.201Z,34.10
2019-02-02T02:04:40.905Z,30.47
2019-02-02T02:07:10.822Z,33.90
2019-02-02T02:09:40.602Z,30.60
2019-02-02T02:12:10.450Z,31.83
2019-02-02T02:14:40.310Z,30.67
2019-02-02T02:17:10.099Z,30.00
2019-02-02T02:19:39.836Z,32.80
2019-02-02T02:22:09.840Z,32.10
2019-02-02T02:24:39.674Z,32.53
2019-02-02T02:27:09.382Z,30.93
2019-02-02T02:29:39.143Z,35.60
2019-02-02T02:32:08.972Z,32.67
2019-02-02T02:34:38.819Z,33.53
2019-02-02T02:37:08.603Z,31.57
2019-02-02T02:39:38.393Z,30.53
2019-02-02T02:42:08.237Z,32.73
2019-02-02T02:44:38.020Z,33.37
2019-02-02T02:47:09.152Z,28.70
2019-02-02T02:49:39.154Z,33.90
2019-02-02T02:52:08.991Z,30.87
2019-02-02T02:54:38.795Z,31.67
2019-02-02T02:57:08.550Z,35.10
2019-02-02T02:59:38.251Z,31.47
2019-02-02T03:02:08.078Z,34.80
2019-02-02T03:04:37.866Z,32.47
2019-02-02T03:07:07.746Z,35.23
2019-02-02T03:09:37.465Z,32.20
2019-02-02T03:12:07.254Z,30.83
2019-02-02T03:14:37.028Z,30.00
2019-02-02T03:17:06.902Z,30.90
2019-02-02T03:19:36.683Z,32.40
2019-02-02T03:22:06.464Z,31.33
2019-02-02T03:24:36.206Z,30.13
2019-02-02T03:27:05.976Z,30.43
2019-02-02T03:29:37.387Z,30.57
2019-02-02T03:32:07.175Z,32.53
2019-02-02T03:34:36.866Z,32.07
2019-02-02T03:37:06.634Z,29.70
2019-02-02T03:39:36.386Z,32.27
2019-02-02T03:42:06.255Z,33.43
2019-02-02T03:44:36.103Z,31.80
2019-02-02T03:47:05.958Z,31.53
2019-02-02T03:49:35.666Z,32.03
2019-02-02T03:52:05.492Z,34.50
2019-02-02T03:54:35.260Z,31.03
2019-02-02T03:57:05.049Z,34.40
2019-02-02T03:59:34.898Z,32.57
2019-02-02T04:02:04.725Z,31.87
2019-02-02T04:04:34.485Z,31.80
2019-02-02T04:07:04.331Z,30.23
2019-02-02T04:09:34.043Z,30.47
2019-02-02T04:12:03.837Z,31.47
2019-02-02T04:14:33.518Z,34.80
2019-02-02T04:17:03.246Z,33.23
2019-02-02T04:19:33.138Z,31.87
2019-02-02T04:22:03.009Z,31.73
2019-02-02T04:24:32.696Z,34.10
2019-02-02T04:27:02.394Z,32.17
2019-02-02T04:29:32.234Z,29.17
2019-02-02T04:32:02.000Z,32.07
2019-02-02T04:34:31.931Z,33.70
2019-02-02T04:37:01.599Z,32.80
2019-02-02T04:39:31.298Z,33.13
2019-02-02T04:42:01.013Z,33.80
2019-02-02T04:44:30.790Z,33.10
2019-02-02T04:47:00.491Z,33.90
2019-02-02T04:49:30.185Z,37.07
2019-02-02T04:52:00.010Z,34.00
2019-02-02T04:54:29.785Z,33.30
2019-02-02T04:56:59.587Z,33.70
2019-02-02T04:59:29.728Z,34.20
2019-02-02T05:01:59.638Z,35.00
2019-02-02T05:04:29.398Z,33.37
2019-02-02T05:06:59.168Z,33.93
2019-02-02T05:09:28.877Z,34.87
2019-02-02T05:11:58.643Z,30.87
2019-02-02T05:14:28.518Z,32.80
2019-02-02T05:17:00.538Z,32.70
2019-02-02T05:19:30.279Z,34.63
2019-02-02T05:22:00.007Z,34.87
2019-02-02T05:24:29.696Z,34.53
2019-02-02T05:26:59.502Z,30.20
2019-02-02T05:29:40.758Z,30.77
2019-02-02T05:32:00.602Z,36.03
2019-02-02T05:34:30.291Z,31.93
2019-02-02T05:37:00.113Z,34.10
2019-02-02T05:39:29.988Z,33.90
2019-02-02T05:41:59.791Z,35.63
2019-02-02T05:44:29.535Z,34.87
2019-02-02T05:46:59.305Z,39.03
2019-02-02T05:49:28.988Z,35.53
2019-02-02T05:51:58.698Z,35.47
2019-02-02T05:54:28.389Z,34.13
2019-02-02T05:56:59.962Z,34.37
2019-02-02T05:59:29.666Z,36.93
2019-02-02T06:02:00.398Z,37.53
2019-02-02T06:04:31.072Z,36.23
2019-02-02T06:07:00.850Z,39.00
2019-02-02T06:09:30.562Z,37.43
2019-02-02T06:12:00.415Z,36.03
2019-02-02T06:14:30.106Z,36.23
2019-02-02T06:16:59.852Z,34.90
2019-02-02T06:19:29.585Z,38.77
2019-02-02T06:21:59.282Z,39.80
2019-02-02T06:24:28.989Z,35.10
2019-02-02T06:26:58.777Z,37.17
2019-02-02T06:29:28.790Z,33.60
2019-02-02T06:31:58.509Z,34.97
2019-02-02T06:34:28.206Z,37.63
2019-02-02T06:36:57.982Z,35.40
2019-02-02T06:39:27.679Z,36.27
2019-02-02T06:41:57.437Z,37.57
2019-02-02T06:44:27.146Z,33.53
2019-02-02T06:46:56.910Z,34.50
2019-02-02T06:49:27.573Z,33.83
2019-02-02T06:51:57.469Z,39.17
2019-02-02T06:54:30.304Z,36.37
2019-02-02T06:56:58.575Z,34.70
2019-02-02T06:59:28.292Z,36.27
2019-02-02T07:01:57.961Z,39.20
2019-02-02T07:04:27.654Z,35.50
2019-02-02T07:06:57.439Z,34.80
2019-02-02T07:09:27.681Z,36.93
2019-02-02T07:11:57.480Z,37.73
2019-02-02T07:14:27.295Z,32.77
2019-02-02T07:16:56.983Z,38.60
2019-02-02T07:19:29.153Z,34.00
2019-02-02T07:21:58.107Z,34.03
2019-02-02T07:24:27.797Z,36.30
2019-02-02T07:26:57.546Z,34.40
2019-02-02T07:29:27.250Z,33.50
2019-02-02T07:31:56.937Z,34.37
2019-02-02T07:34:26.729Z,33.47
2019-02-02T07:36:56.394Z,33.60
2019-02-02T07:39:26.081Z,33.13
2019-02-02T07:41:55.867Z,29.63
2019-02-02T07:44:25.634Z,32.93
2019-02-02T07:46:55.407Z,31.37
2019-02-02T07:49:25.264Z,30.77
2019-02-02T07:51:55.043Z,32.57
2019-02-02T07:54:24.919Z,31.73
2019-02-02T07:56:54.594Z,32.67
2019-02-02T07:59:24.309Z,31.97
2019-02-02T08:01:54.070Z,32.53
2019-02-02T08:04:23.792Z,30.90
2019-02-02T08:06:53.557Z,29.33
2019-02-02T08:09:23.232Z,32.50
2019-02-02T08:11:53.040Z,31.00
2019-02-02T08:14:22.851Z,33.17
2019-02-02T08:16:52.832Z,32.07
2019-02-02T08:19:25.490Z,32.63
2019-02-02T08:21:54.080Z,36.17
2019-02-02T08:24:23.768Z,31.70
2019-02-02T08:26:54.017Z,33.27
2019-02-02T08:29:23.789Z,35.77
2019-02-02T08:31:53.490Z,30.80
2019-02-02T08:34:24.160Z,34.10
2019-02-02T08:36:54.207Z,34.40
2019-02-02T08:39:29.116Z,33.33
2019-02-02T08:41:55.530Z,32.60
2019-02-02T08:44:25.222Z,32.73
2019-02-02T08:46:55.047Z,32.90
2019-02-02T08:49:24.748Z,31.43
2019-02-02T08:51:54.534Z,34.17
2019-02-02T08:54:24.228Z,35.53
2019-02-02T08:56:54.044Z,34.00
2019-02-02T08:59:23.754Z,32.67
2019-02-02T09:01:53.571Z,30.50
2019-02-02T09:04:23.340Z,29.87
2019-02-02T09:06:53.194Z,32.37
2019-02-02T09:09:23.079Z,34.70
2019-02-02T09:11:52.879Z,29.20
2019-02-02T09:14:22.562Z,30.17
2019-02-02T09:17:04.368Z,33.30
2019-02-02T09:19:34.155Z,32.33
2019-02-02T09:22:04.068Z,32.73
2019-02-02T09:24:33.899Z,30.13
2019-02-02T09:27:03.626Z,31.57
2019-02-02T09:29:33.314Z,30.70
2019-02-02T09:32:03.134Z,32.57
2019-02-02T09:34:32.883Z,29.57
2019-02-02T09:37:02.747Z,30.97
2019-02-02T09:39:32.444Z,26.90
2019-02-02T09:42:02.322Z,28.67
2019-02-02T09:44:32.254Z,29.27
2019-02-02T09:47:02.146Z,29.20
2019-02-02T09:49:31.847Z,31.33
2019-02-02T09:52:01.545Z,31.73
2019-02-02T09:54:31.247Z,29.27
2019-02-02T09:57:01.023Z,29.40
2019-02-02T09:59:30.708Z,28.77
2019-02-02T10:02:00.399Z,31.90
2019-02-02T10:04:30.211Z,32.30
2019-02-02T10:06:59.920Z,30.90
2019-02-02T10:09:29.934Z,30.50
2019-02-02T10:11:59.756Z,29.73
2019-02-02T10:14:29.562Z,30.37
2019-02-02T10:16:59.370Z,29.03
2019-02-02T10:19:30.112Z,30.53
2019-02-02T10:21:59.932Z,30.47
2019-02-02T10:24:29.640Z,28.97
2019-02-02T10:26:59.330Z,29.83
2019-02-02T10:29:29.075Z,27.50
2019-02-02T10:31:58.838Z,28.53
2019-02-02T10:34:28.612Z,29.00
2019-02-02T10:36:58.470Z,28.20
2019-02-02T10:39:28.278Z,27.83
2019-02-02T10:41:57.962Z,29.57
2019-02-02T10:44:27.646Z,28.40
2019-02-02T10:46:57.331Z,25.63
2019-02-02T10:49:27.030Z,27.97
2019-02-02T10:51:56.871Z,27.27
2019-02-02T10:54:26.676Z,28.53
2019-02-02T10:56:56.458Z,30.10
2019-02-02T10:59:26.146Z,26.40
2019-02-02T11:01:55.986Z,27.93
2019-02-02T11:04:25.783Z,25.03
2019-02-02T11:06:55.616Z,24.90
2019-02-02T11:09:25.326Z,23.87
2019-02-02T11:11:55.316Z,26.33
2019-02-02T11:14:25.243Z,25.03
2019-02-02T11:16:55.028Z,22.97
2019-02-02T11:19:24.835Z,24.93
2019-02-02T11:21:54.730Z,22.37
2019-02-02T11:24:24.422Z,23.10
2019-02-02T11:26:54.282Z,24.00
2019-02-02T11:29:23.980Z,22.77
2019-02-02T11:32:02.520Z,21.47
2019-02-02T11:34:25.030Z,22.50
2019-02-02T11:36:54.819Z,22.40
2019-02-02T11:39:24.595Z,24.27
2019-02-02T11:41:54.355Z,21.00
2019-02-02T11:44:24.127Z,22.13
2019-02-02T11:46:53.866Z,19.93
2019-02-02T11:49:24.115Z,21.80
2019-02-02T11:51:54.020Z,21.27
2019-02-02T11:54:23.714Z,21.40
2019-02-02T11:56:53.531Z,20.23
2019-02-02T11:59:23.311Z,16.63
2019-02-02T12:01:53.125Z,18.23
2019-02-02T12:04:22.905Z,17.77
2019-02-02T12:06:52.666Z,17.30
2019-02-02T12:09:22.398Z,15.83
2019-02-02T12:11:52.087Z,15.97
2019-02-02T12:14:21.810Z,15.83
2019-02-02T12:16:51.569Z,16.20
2019-02-02T12:19:21.439Z,15.80
2019-02-02T12:21:51.375Z,14.63
2019-02-02T12:24:21.175Z,15.03
2019-02-02T12:26:51.112Z,14.07
2019-02-02T12:29:20.913Z,14.80
2019-02-02T12:31:50.709Z,16.50
2019-02-02T12:34:20.511Z,16.27
2019-02-02T12:36:50.264Z,16.57
2019-02-02T12:39:20.170Z,17.17
2019-02-02T12:41:50.022Z,18.30
2019-02-02T12:44:19.864Z,16.57
2019-02-02T12:46:49.662Z,18.33
2019-02-02T12:49:19.525Z,18.53
2019-02-02T12:51:49.308Z,19.20
2019-02-02T12:54:19.133Z,20.57
2019-02-02T12:56:49.057Z,19.97
2019-02-02T12:59:18.877Z,21.80
2019-02-02T13:01:48.654Z,21.93
2019-02-02T13:04:18.476Z,21.00
2019-02-02T13:06:48.237Z,19.93
2019-02-02T13:09:18.018Z,21.03
2019-02-02T13:11:47.972Z,21.87
2019-02-02T13:14:17.699Z,22.07
2019-02-02T13:16:50.076Z,23.73
2019-02-02T13:19:18.844Z,21.60
2019-02-02T13:21:48.607Z,22.70
2019-02-02T13:24:18.390Z,23.20
2019-02-02T13:26:48.163Z,22.53
2019-02-02T13:29:18.065Z,22.80
2019-02-02T13:31:47.854Z,24.00
2019-02-02T13:34:17.570Z,23.47
2019-02-02T13:36:47.350Z,25.10
2019-02-02T13:39:17.034Z,24.23
2019-02-02T13:41:46.739Z,24.97
2019-02-02T13:44:16.430Z,23.53
2019-02-02T13:46:47.712Z,22.80
2019-02-02T13:49:17.567Z,24.00
2019-02-02T13:51:47.393Z,23.17
2019-02-02T13:54:17.133Z,21.60
2019-02-02T13:56:49.714Z,25.70
2019-02-02T13:59:18.341Z,26.97
2019-02-02T14:01:48.069Z,23.90
2019-02-02T14:04:17.814Z,24.73
2019-02-02T14:06:47.610Z,23.30
2019-02-02T14:09:17.359Z,23.97
2019-02-02T14:11:47.184Z,23.67
2019-02-02T14:14:16.886Z,23.00
2019-02-02T14:16:46.601Z,21.67
2019-02-02T14:19:16.303Z,25.10
2019-02-02T14:21:46.131Z,22.90
2019-02-02T14:24:15.847Z,22.70
2019-02-02T14:26:45.563Z,24.00
2019-02-02T14:29:15.338Z,23.90
2019-02-02T14:31:45.052Z,20.10
2019-02-02T14:34:14.745Z,21.37
2019-02-02T14:36:44.596Z,25.20
2019-02-02T14:39:14.454Z,24.07
2019-02-02T14:41:44.233Z,20.27
2019-02-02T14:44:13.922Z,21.70
2019-02-02T14:46:43.693Z,21.27
2019-02-02T14:49:13.407Z,21.73
2019-02-02T14:51:43.327Z,20.87
2019-02-02T14:54:13.100Z,20.70
2019-02-02T14:56:48.056Z,21.67
2019-02-02T14:59:14.376Z,23.47
2019-02-02T15:01:44.089Z,23.67
2019-02-02T15:04:13.928Z,20.83
2019-02-02T15:06:43.831Z,19.63
2019-02-02T15:09:13.602Z,18.83
2019-02-02T15:11:43.412Z,22.23
2019-02-02T15:14:13.312Z,19.13
2019-02-02T15:16:43.040Z,19.40
2019-02-02T15:19:12.921Z,19.43
2019-02-02T15:21:42.635Z,21.53
2019-02-02T15:24:12.354Z,20.43
2019-02-02T15:26:42.062Z,20.07
2019-02-02T15:29:11.814Z,21.07
2019-02-02T15:31:41.511Z,18.77
2019-02-02T15:34:11.251Z,22.20
2019-02-02T15:36:41.007Z,20.37
2019-02-02T15:39:10.896Z,23.33
2019-02-02T15:41:52.337Z,23.63
2019-02-02T15:44:12.045Z,22.67
2019-02-02T15:46:48.739Z,24.10
2019-02-02T15:49:13.334Z,21.63
2019-02-02T15:51:43.125Z,23.00
2019-02-02T15:54:12.854Z,23.80
2019-02-02T15:56:42.610Z,23.30
2019-02-02T15:59:12.378Z,23.37
2019-02-02T16:01:42.094Z,23.70
2019-02-02T16:04:11.778Z,25.43
2019-02-02T16:06:41.495Z,24.53
2019-02-02T16:09:11.366Z,24.13
2019-02-02T16:11:41.075Z,24.90
2019-02-02T16:14:10.767Z,24.40
2019-02-02T16:16:40.578Z,25.70
2019-02-02T16:19:10.274Z,23.80
2019-02-02T16:21:39.987Z,24.43
2019-02-02T16:24:09.721Z,23.87
2019-02-02T16:26:39.490Z,25.17
2019-02-02T16:29:09.278Z,27.33
2019-02-02T16:31:38.965Z,28.27
2019-02-02T16:34:08.803Z,25.20
2019-02-02T16:36:38.580Z,25.33
2019-02-02T16:39:09.080Z,28.93
2019-02-02T16:41:38.907Z,25.47
2019-02-02T16:44:08.851Z,26.30
2019-02-02T16:46:44.664Z,23.73
2019-02-02T16:49:14.467Z,26.30
2019-02-02T16:51:44.294Z,25.03
2019-02-02T16:54:14.097Z,28.47
2019-02-02T16:56:43.790Z,29.43
2019-02-02T16:59:13.494Z,27.50
2019-02-02T17:01:43.190Z,24.87
2019-02-02T17:04:15.890Z,26.13
2019-02-02T17:06:44.495Z,24.90
2019-02-02T17:09:14.335Z,26.03
2019-02-02T17:11:44.086Z,27.30
2019-02-02T17:14:17.637Z,26.30
2019-02-02T17:16:46.075Z,26.87
2019-02-02T17:19:15.915Z,29.37
2019-02-02T17:21:45.719Z,27.97
2019-02-02T17:24:15.502Z,29.67
2019-02-02T17:26:45.397Z,27.37
2019-02-02T17:29:15.231Z,28.63
2019-02-02T17:31:45.159Z,28.60
2019-02-02T17:34:26.634Z,27.50
2019-02-02T17:36:46.788Z,26.97
2019-02-02T17:39:16.735Z,28.83
2019-02-02T17:41:46.494Z,27.57
2019-02-02T17:44:16.190Z,25.93
2019-02-02T17:46:45.907Z,29.93
2019-02-02T17:49:15.715Z,28.33
2019-02-02T17:51:45.426Z,27.97
2019-02-02T17:54:15.111Z,30.17
2019-02-02T17:56:44.806Z,29.00
2019-02-02T17:59:14.728Z,30.10
2019-02-02T18:01:44.850Z,28.67
2019-02-02T18:04:14.843Z,29.93
2019-02-02T18:06:44.615Z,26.17
2019-02-02T18:09:14.322Z,30.17
2019-02-02T18:11:44.039Z,31.40
2019-02-02T18:14:13.770Z,28.83
2019-02-02T18:16:43.465Z,29.30
2019-02-02T18:19:13.242Z,29.07
2019-02-02T18:21:42.955Z,30.87
2019-02-02T18:24:12.664Z,29.20
2019-02-02T18:26:42.434Z,26.97
2019-02-02T18:29:12.280Z,30.23
2019-02-02T18:31:42.052Z,29.77
2019-02-02T18:34:11.755Z,29.37
2019-02-02T18:36:41.443Z,30.40
2019-02-02T18:39:11.326Z,31.70
2019-02-02T18:41:41.086Z,31.33
2019-02-02T18:44:10.867Z,29.07
2019-02-02T18:46:40.590Z,28.27
2019-02-02T18:49:10.356Z,31.10
2019-02-02T18:51:40.074Z,33.73
2019-02-02T18:54:09.938Z,29.53
2019-02-02T18:56:39.739Z,32.83
2019-02-02T18:59:09.819Z,32.60
2019-02-02T19:01:39.507Z,33.33
2019-02-02T19:04:09.363Z,33.10
2019-02-02T19:06:40.496Z,30.57
2019-02-02T19:09:10.250Z,30.13
2019-02-02T19:11:40.106Z,33.77
2019-02-02T19:14:09.862Z,32.03
2019-02-02T19:16:39.637Z,31.17
2019-02-02T19:19:09.534Z,36.33
2019-02-02T19:21:39.298Z,37.47
2019-02-02T19:24:09.421Z,35.17
2019-02-02T19:26:39.206Z,34.87
2019-02-02T19:29:08.931Z,33.47
2019-02-02T19:31:38.686Z,36.33
2019-02-02T19:34:08.455Z,35.43
2019-02-02T19:36:38.214Z,41.37
2019-02-02T19:39:08.921Z,39.13
2019-02-02T19:41:38.685Z,36.23
2019-02-02T19:44:08.462Z,39.60
2019-02-02T19:46:38.290Z,38.47
2019-02-02T19:49:07.973Z,39.70
2019-02-02T19:51:37.667Z,40.63
2019-02-02T19:54:07.813Z,35.40
2019-02-02T19:56:37.783Z,37.07
2019-02-02T19:59:07.678Z,36.50
2019-02-02T20:01:38.458Z,36.77
2019-02-02T20:04:08.395Z,38.97
2019-02-02T20:06:38.181Z,33.17
2019-02-02T20:09:08.991Z,36.60
2019-02-02T20:11:38.802Z,35.07
2019-02-02T20:14:08.550Z,36.53
2019-02-02T20:16:38.387Z,39.20
2019-02-02T20:19:08.213Z,36.30
2019-02-02T20:21:37.906Z,38.73
2019-02-02T20:24:07.782Z,38.20
2019-02-02T20:26:37.499Z,34.57
2019-02-02T20:29:07.430Z,39.03
2019-02-02T20:31:37.228Z,37.97
2019-02-02T20:34:07.048Z,33.57
2019-02-02T20:36:36.859Z,34.33
2019-02-02T20:39:08.357Z,39.27
2019-02-02T20:41:38.037Z,35.37
2019-02-02T20:44:07.823Z,36.37
2019-02-02T20:46:38.013Z,33.43
2019-02-02T20:49:08.160Z,36.87
2019-02-02T20:51:38.202Z,33.40
2019-02-02T20:54:08.338Z,37.20
2019-02-02T20:56:38.335Z,34.40
2019-02-02T20:59:08.133Z,37.47
2019-02-02T21:01:37.944Z,35.27
2019-02-02T21:04:07.770Z,35.97
2019-02-02T21:06:37.470Z,37.53
2019-02-02T21:09:07.998Z,33.73
2019-02-02T21:11:37.753Z,36.60
2019-02-02T21:14:07.643Z,34.87
2019-02-02T21:16:37.395Z,37.43
2019-02-02T21:19:07.182Z,36.50
2019-02-02T21:21:36.885Z,32.47
2019-02-02T21:24:06.775Z,37.40
2019-02-02T21:26:36.550Z,39.03
2019-02-02T21:29:07.322Z,34.57
2019-02-02T21:31:37.034Z,40.13
2019-02-02T21:34:06.755Z,34.60
2019-02-02T21:36:38.823Z,33.10
2019-02-02T21:39:09.146Z,36.57
2019-02-02T21:41:40.671Z,35.07
2019-02-02T21:44:10.710Z,32.60
2019-02-02T21:46:40.398Z,32.10
2019-02-02T21:49:10.079Z,32.90
2019-02-02T21:51:39.792Z,34.70
2019-02-02T21:54:09.558Z,30.57
2019-02-02T21:56:39.506Z,31.13
2019-02-02T21:59:09.299Z,32.70
2019-02-02T22:01:39.230Z,29.47
2019-02-02T22:04:09.030Z,32.40
2019-02-02T22:06:38.814Z,31.83
2019-02-02T22:09:08.953Z,29.17
2019-02-02T22:11:38.648Z,29.80
2019-02-02T22:14:08.670Z,29.90
2019-02-02T22:16:38.534Z,31.23
2019-02-02T22:19:08.235Z,27.43
2019-02-02T22:21:37.930Z,27.97
2019-02-02T22:24:07.623Z,26.00
2019-02-02T22:26:38.950Z,28.67
2019-02-02T22:29:08.797Z,27.10
2019-02-02T22:31:38.486Z,27.40
2019-02-02T22:34:08.418Z,28.03
2019-02-02T22:36:38.198Z,24.17
2019-02-02T22:39:08.978Z,27.13
2019-02-02T22:41:38.711Z,23.87
2019-02-02T22:44:08.384Z,25.67
2019-02-02T22:46:38.151Z,28.23
2019-02-02T22:49:08.001Z,32.30
2019-02-02T22:51:38.058Z,30.97
2019-02-02T22:54:07.835Z,26.37
2019-02-02T22:56:37.525Z,27.70
2019-02-02T22:59:07.219Z,26.93
2019-02-02T23:01:43.730Z,32.03
2019-02-02T23:04:21.971Z,27.53
2019-02-02T23:07:09.118Z,26.53
2019-02-02T23:10:22.750Z,26.97
2019-02-02T23:13:10.683Z,24.37
2019-02-02T23:16:21.094Z,27.50
2019-02-02T23:18:51.246Z,25.70
2019-02-02T23:21:21.074Z,24.33
2019-02-02T23:23:50.788Z,25.03
2019-02-02T23:26:20.729Z,25.83
2019-02-02T23:28:50.424Z,24.97
2019-02-02T23:31:20.438Z,23.33
2019-02-02T23:33:51.270Z,25.10
2019-02-02T23:36:21.437Z,22.47
2019-02-02T23:38:51.199Z,22.67
2019-02-02T23:41:21.010Z,20.20
2019-02-02T23:43:51.742Z,23.27
2019-02-02T23:46:21.428Z,22.83
2019-02-02T23:48:51.123Z,22.17
2019-02-02T23:51:21.037Z,21.37
2019-02-02T23:53:51.785Z,23.53
2019-02-02T23:56:22.567Z,22.87
2019-02-02T23:58:52.241Z,21.83
